Hobe Sound, FL (33455)

11:01 AM EDT on August 21, 2014 (GMT -0400)
Otter Lake | Change Station
CLOSE
Current Station
Personal Weather Station
Location: Hobe Sound, FL
Elevation: 16 ft
Nearby Weather Stations

Elev 16 ft 27.04 °N, 80.17 °W | Updated 4 seconds ago

Partly Cloudy
Partly Cloudy
93.5 °F
Feels Like 108 °F
N
0.0
Wind Variable Wind from NNE
Gusts 0.0 mph

Today
High -- | Low -- °F
--% Chance of Precip.
Yesterday
High -- | Low -- °F
Precip. -- in
6:54 AM 7:52 PM
Waning Crescent, 14% visible
Pressure 30.15 in
Visibility 7.0 miles
Clouds Scattered Clouds 2000 ft
Heat Index 108 °F
Dew Point 91 °F
Humidity 59%
Rainfall 0.00 in
Snow Depth Not available.
UV 8 out of 12
Pollen 4.80 out of 12
Air Quality Not available.
Flu Activity Not available.
METAR KSUA 211447Z 00000KT 7SM SCT020 30/23 A3015

More Conditions Fewer Conditions

Pressure 30.15 in
Visibility 7.0 miles
Clouds Scattered Clouds 2000 ft
Heat Index 108 °F
Dew Point 91 °F
Humidity 59%
Rainfall 0.00 in
Snow Depth Not available.
UV 8 out of 12
Pollen 4.80 out of 12
Air Quality Not available.
Flu Activity Not available.
METAR KSUA 211447Z 00000KT 7SM SCT020 30/23 A3015

More Conditions Fewer Conditions

Nowcast | as of 9:19 am EDT on August 21, 2014

The East Coast sea breeze will develop by mid day near the coast and push slowly inland across the coastal counties from early to mid afternoon. Isolated showers and lightning storms are forecast to develop near or just west of I-95 and push slowly inland across the coastal counties and toward the interior by mid to late afternoon. High temperatures will reach around 90 to the lower 90s near the coast and into the mid 90s over the interior. Additional details...including graphics are available online at: http://www.Srh.NOAA.Gov/mlb/blog.Php

×

10-Day Weather Forecast

Almanac

Astronomy

Aug. 21, 2014 Rise Set
Actual Time 6:54 AM EDT 7:52 PM EDT
Civil Twilight 6:30 AM EDT 8:16 PM EDT
Nautical Twilight 6:02 AM EDT 8:44 PM EDT
Astronomical Twilight 5:33 AM EDT 9:13 PM EDT
Moon 3:32 AM EDT 5:12 PM EDT
Length of Visible Light 13h 45m
Length of Day
12h 57m
Tomorrow will be 1m 28s shorter.
Waning Crescent, 14% of the Moon is Illuminated
Today
Waning Crescent
Aug 25
New
Sep 2
First Quarter
Sep 8
Full
Sep 15
Last Quarter

Today's Extremes

State Highs State Lows

Community

WunderPhotos

Upload Photos

1,745,945 photos uploaded!

Nearby

Snow Depth

Station Depth Elevation
No new snow has been reported.

Earthquake Activity

City Distance Mag. Time & Date
No recent earthquake activity has been reported nearby.
Minimum magnitude displayed is 2.5.

Coastal Water Temperatures

Place Temperature
Lake Worth, FL 87.1 °F
Trident Pier, FL 82.9 °F
Virginia Key, FL 89.1 °F

Nearby Weather Stations